sensor_id;sensor_type;location;lat;lon;timestamp;temperature;humidity
8269;DHT22;4174;48.304;16.364;2022-07-22T00:04:52;24.00;99.90
8269;DHT22;4174;48.304;16.364;2022-07-22T00:10:58;23.90;99.90
8269;DHT22;4174;48.304;16.364;2022-07-22T00:17:03;23.70;99.90
8269;DHT22;4174;48.304;16.364;2022-07-22T00:23:10;23.60;99.90
8269;DHT22;4174;48.304;16.364;2022-07-22T00:29:14;23.50;99.90
8269;DHT22;4174;48.304;16.364;2022-07-22T00:35:19;23.40;99.90
8269;DHT22;4174;48.304;16.364;2022-07-22T00:41:24;23.40;99.90
8269;DHT22;4174;48.304;16.364;2022-07-22T00:47:30;23.20;99.90
8269;DHT22;4174;48.304;16.364;2022-07-22T00:53:34;23.20;99.90
8269;DHT22;4174;48.304;16.364;2022-07-22T00:59:39;23.10;99.90
8269;DHT22;4174;48.304;16.364;2022-07-22T01:05:50;22.90;99.90
8269;DHT22;4174;48.304;16.364;2022-07-22T01:11:54;22.80;99.90
8269;DHT22;4174;48.304;16.364;2022-07-22T01:17:59;22.80;99.90
8269;DHT22;4174;48.304;16.364;2022-07-22T01:24:04;22.70;99.90
8269;DHT22;4174;48.304;16.364;2022-07-22T01:30:12;22.60;99.90
8269;DHT22;4174;48.304;16.364;2022-07-22T01:36:16;22.60;99.90
8269;DHT22;4174;48.304;16.364;2022-07-22T01:42:20;22.50;99.90
8269;DHT22;4174;48.304;16.364;2022-07-22T01:48:27;22.50;99.90
8269;DHT22;4174;48.304;16.364;2022-07-22T01:54:31;22.40;99.90
8269;DHT22;4174;48.304;16.364;2022-07-22T02:00:36;22.40;99.90
8269;DHT22;4174;48.304;16.364;2022-07-22T02:06:45;22.30;99.90
8269;DHT22;4174;48.304;16.364;2022-07-22T02:12:48;22.30;99.90
8269;DHT22;4174;48.304;16.364;2022-07-22T02:18:53;22.30;99.90
8269;DHT22;4174;48.304;16.364;2022-07-22T02:24:59;22.20;99.90
8269;DHT22;4174;48.304;16.364;2022-07-22T02:31:04;22.20;99.90
8269;DHT22;4174;48.304;16.364;2022-07-22T02:37:07;22.20;99.90
8269;DHT22;4174;48.304;16.364;2022-07-22T02:43:11;22.20;99.90
8269;DHT22;4174;48.304;16.364;2022-07-22T02:49:16;22.10;99.90
8269;DHT22;4174;48.304;16.364;2022-07-22T02:55:21;22.10;99.90
8269;DHT22;4174;48.304;16.364;2022-07-22T03:01:27;22.10;99.90
8269;DHT22;4174;48.304;16.364;2022-07-22T03:07:32;22.10;99.90
8269;DHT22;4174;48.304;16.364;2022-07-22T03:13:38;22.10;99.90
8269;DHT22;4174;48.304;16.364;2022-07-22T03:19:43;22.00;99.90
8269;DHT22;4174;48.304;16.364;2022-07-22T03:25:48;22.00;99.90
8269;DHT22;4174;48.304;16.364;2022-07-22T03:31:55;22.00;99.90
8269;DHT22;4174;48.304;16.364;2022-07-22T03:38:01;22.00;99.90
8269;DHT22;4174;48.304;16.364;2022-07-22T03:44:06;22.00;99.90
8269;DHT22;4174;48.304;16.364;2022-07-22T03:50:12;22.10;99.90
8269;DHT22;4174;48.304;16.364;2022-07-22T03:56:16;22.20;99.90
8269;DHT22;4174;48.304;16.364;2022-07-22T04:02:21;22.30;99.90
8269;DHT22;4174;48.304;16.364;2022-07-22T04:08:24;22.20;99.90
8269;DHT22;4174;48.304;16.364;2022-07-22T04:14:28;22.30;99.90
8269;DHT22;4174;48.304;16.364;2022-07-22T04:20:34;22.40;99.90
8269;DHT22;4174;48.304;16.364;2022-07-22T04:26:59;22.70;99.90
8269;DHT22;4174;48.304;16.364;2022-07-22T04:33:04;22.70;99.90
8269;DHT22;4174;48.304;16.364;2022-07-22T04:39:10;23.00;99.90
8269;DHT22;4174;48.304;16.364;2022-07-22T04:51:39;24.20;99.90
8269;DHT22;4174;48.304;16.364;2022-07-22T04:57:45;26.00;99.90
8269;DHT22;4174;48.304;16.364;2022-07-22T05:03:49;24.90;99.90
8269;DHT22;4174;48.304;16.364;2022-07-22T05:09:53;24.40;99.90
8269;DHT22;4174;48.304;16.364;2022-07-22T05:16:01;24.30;99.90
8269;DHT22;4174;48.304;16.364;2022-07-22T05:22:15;24.50;99.90
8269;DHT22;4174;48.304;16.364;2022-07-22T05:28:33;27.80;99.90
8269;DHT22;4174;48.304;16.364;2022-07-22T05:34:36;33.60;99.90
8269;DHT22;4174;48.304;16.364;2022-07-22T05:40:42;36.80;87.60
8269;DHT22;4174;48.304;16.364;2022-07-22T05:46:47;39.50;64.90
8269;DHT22;4174;48.304;16.364;2022-07-22T05:59:13;40.70;58.50
8269;DHT22;4174;48.304;16.364;2022-07-22T06:11:54;42.00;52.30
8269;DHT22;4174;48.304;16.364;2022-07-22T06:17:58;41.70;50.70
8269;DHT22;4174;48.304;16.364;2022-07-22T06:24:07;41.50;49.90
8269;DHT22;4174;48.304;16.364;2022-07-22T06:30:18;39.20;50.60
8269;DHT22;4174;48.304;16.364;2022-07-22T06:36:22;38.90;52.50
8269;DHT22;4174;48.304;16.364;2022-07-22T06:42:27;37.80;51.20
8269;DHT22;4174;48.304;16.364;2022-07-22T06:48:35;37.90;51.20
8269;DHT22;4174;48.304;16.364;2022-07-22T06:54:42;37.70;51.40
8269;DHT22;4174;48.304;16.364;2022-07-22T07:00:48;37.70;51.30
8269;DHT22;4174;48.304;16.364;2022-07-22T07:06:55;37.00;53.70
8269;DHT22;4174;48.304;16.364;2022-07-22T07:13:08;37.00;53.70
8269;DHT22;4174;48.304;16.364;2022-07-22T07:19:14;36.20;54.80
8269;DHT22;4174;48.304;16.364;2022-07-22T07:25:21;36.20;54.70
8269;DHT22;4174;48.304;16.364;2022-07-22T07:31:28;35.60;57.10
8269;DHT22;4174;48.304;16.364;2022-07-22T07:37:32;35.60;57.10
8269;DHT22;4174;48.304;16.364;2022-07-22T07:43:35;35.90;59.50
8269;DHT22;4174;48.304;16.364;2022-07-22T07:49:44;36.00;57.00
8269;DHT22;4174;48.304;16.364;2022-07-22T07:55:48;35.80;59.80
8269;DHT22;4174;48.304;16.364;2022-07-22T08:01:57;35.80;59.70
8269;DHT22;4174;48.304;16.364;2022-07-22T08:08:01;36.00;58.40
8269;DHT22;4174;48.304;16.364;2022-07-22T08:14:17;36.00;60.00
8269;DHT22;4174;48.304;16.364;2022-07-22T08:20:22;36.00;60.20
8269;DHT22;4174;48.304;16.364;2022-07-22T08:26:31;37.10;59.90
8269;DHT22;4174;48.304;16.364;2022-07-22T08:32:37;37.40;55.30
8269;DHT22;4174;48.304;16.364;2022-07-22T08:38:46;37.20;55.70
8269;DHT22;4174;48.304;16.364;2022-07-22T08:44:52;37.20;56.30
8269;DHT22;4174;48.304;16.364;2022-07-22T08:50:55;36.60;58.10
8269;DHT22;4174;48.304;16.364;2022-07-22T08:57:01;37.20;57.10
8269;DHT22;4174;48.304;16.364;2022-07-22T09:09:30;38.30;54.30
8269;DHT22;4174;48.304;16.364;2022-07-22T09:15:38;38.30;54.20
8269;DHT22;4174;48.304;16.364;2022-07-22T09:21:44;38.40;52.60
8269;DHT22;4174;48.304;16.364;2022-07-22T09:27:47;38.20;52.70
8269;DHT22;4174;48.304;16.364;2022-07-22T09:33:51;38.50;55.60
8269;DHT22;4174;48.304;16.364;2022-07-22T09:40:01;38.90;52.50
8269;DHT22;4174;48.304;16.364;2022-07-22T09:46:12;38.70;50.70
8269;DHT22;4174;48.304;16.364;2022-07-22T09:52:16;39.40;53.50
8269;DHT22;4174;48.304;16.364;2022-07-22T09:58:21;39.10;50.60
8269;DHT22;4174;48.304;16.364;2022-07-22T10:04:39;39.00;50.50
8269;DHT22;4174;48.304;16.364;2022-07-22T10:10:52;40.00;48.70
8269;DHT22;4174;48.304;16.364;2022-07-22T10:16:58;40.00;46.80
8269;DHT22;4174;48.304;16.364;2022-07-22T10:35:28;40.80;45.20
8269;DHT22;4174;48.304;16.364;2022-07-22T10:41:37;40.10;45.50
8269;DHT22;4174;48.304;16.364;2022-07-22T11:00:15;40.60;46.20
8269;DHT22;4174;48.304;16.364;2022-07-22T11:06:25;40.90;43.20
8269;DHT22;4174;48.304;16.364;2022-07-22T11:12:29;40.80;46.40
8269;DHT22;4174;48.304;16.364;2022-07-22T11:25:00;40.80;43.80
8269;DHT22;4174;48.304;16.364;2022-07-22T11:31:15;40.80;43.60
8269;DHT22;4174;48.304;16.364;2022-07-22T11:37:16;40.90;44.00
8269;DHT22;4174;48.304;16.364;2022-07-22T11:43:21;41.10;45.10
8269;DHT22;4174;48.304;16.364;2022-07-22T11:49:27;40.80;43.00
8269;DHT22;4174;48.304;16.364;2022-07-22T12:01:51;40.80;42.50
8269;DHT22;4174;48.304;16.364;2022-07-22T12:08:00;40.40;42.90
8269;DHT22;4174;48.304;16.364;2022-07-22T12:14:07;40.30;42.80
8269;DHT22;4174;48.304;16.364;2022-07-22T12:20:10;40.30;45.20
8269;DHT22;4174;48.304;16.364;2022-07-22T12:51:41;39.90;42.30
8269;DHT22;4174;48.304;16.364;2022-07-22T12:57:50;39.40;42.00
8269;DHT22;4174;48.304;16.364;2022-07-22T13:04:14;39.30;43.90
8269;DHT22;4174;48.304;16.364;2022-07-22T13:10:20;39.20;44.70
8269;DHT22;4174;48.304;16.364;2022-07-22T13:16:24;38.80;41.80
8269;DHT22;4174;48.304;16.364;2022-07-22T13:22:27;38.70;41.70
8269;DHT22;4174;48.304;16.364;2022-07-22T13:28:32;38.50;42.50
8269;DHT22;4174;48.304;16.364;2022-07-22T13:34:40;38.30;44.00
8269;DHT22;4174;48.304;16.364;2022-07-22T13:40:53;38.10;42.80
8269;DHT22;4174;48.304;16.364;2022-07-22T13:47:01;37.60;45.10
8269;DHT22;4174;48.304;16.364;2022-07-22T13:53:05;37.60;45.00
8269;DHT22;4174;48.304;16.364;2022-07-22T13:59:16;37.30;44.80
8269;DHT22;4174;48.304;16.364;2022-07-22T14:05:30;37.20;44.10
8269;DHT22;4174;48.304;16.364;2022-07-22T14:17:58;36.90;46.70
8269;DHT22;4174;48.304;16.364;2022-07-22T14:24:04;36.70;46.70
8269;DHT22;4174;48.304;16.364;2022-07-22T14:30:09;36.80;46.20
8269;DHT22;4174;48.304;16.364;2022-07-22T14:36:20;36.70;46.10
8269;DHT22;4174;48.304;16.364;2022-07-22T14:42:26;36.60;45.60
8269;DHT22;4174;48.304;16.364;2022-07-22T14:48:31;36.20;46.10
8269;DHT22;4174;48.304;16.364;2022-07-22T15:01:03;35.50;45.10
8269;DHT22;4174;48.304;16.364;2022-07-22T15:07:07;35.30;45.40
8269;DHT22;4174;48.304;16.364;2022-07-22T15:13:12;35.10;46.70
8269;DHT22;4174;48.304;16.364;2022-07-22T15:19:16;34.90;48.00
8269;DHT22;4174;48.304;16.364;2022-07-22T15:25:23;34.60;48.10
8269;DHT22;4174;48.304;16.364;2022-07-22T15:31:29;34.50;48.50
8269;DHT22;4174;48.304;16.364;2022-07-22T15:37:35;34.40;49.40
8269;DHT22;4174;48.304;16.364;2022-07-22T15:43:43;34.40;49.40
8269;DHT22;4174;48.304;16.364;2022-07-22T15:49:51;34.20;47.90
8269;DHT22;4174;48.304;16.364;2022-07-22T15:55:54;34.20;48.50
8269;DHT22;4174;48.304;16.364;2022-07-22T16:02:00;34.00;49.60
8269;DHT22;4174;48.304;16.364;2022-07-22T16:08:11;33.90;49.50
8269;DHT22;4174;48.304;16.364;2022-07-22T16:14:15;33.70;49.10
8269;DHT22;4174;48.304;16.364;2022-07-22T16:20:20;33.70;49.10
8269;DHT22;4174;48.304;16.364;2022-07-22T16:26:25;33.50;49.70
8269;DHT22;4174;48.304;16.364;2022-07-22T16:32:32;33.50;49.70
8269;DHT22;4174;48.304;16.364;2022-07-22T16:38:37;33.10;50.20
8269;DHT22;4174;48.304;16.364;2022-07-22T16:44:54;33.10;50.10
8269;DHT22;4174;48.304;16.364;2022-07-22T16:50:59;33.00;54.20
8269;DHT22;4174;48.304;16.364;2022-07-22T16:57:06;32.90;49.30
8269;DHT22;4174;48.304;16.364;2022-07-22T17:03:15;32.80;50.60
8269;DHT22;4174;48.304;16.364;2022-07-22T17:09:19;32.80;50.00
8269;DHT22;4174;48.304;16.364;2022-07-22T17:21:38;32.60;49.80
8269;DHT22;4174;48.304;16.364;2022-07-22T17:27:45;32.50;52.90
8269;DHT22;4174;48.304;16.364;2022-07-22T17:33:51;32.30;50.80
8269;DHT22;4174;48.304;16.364;2022-07-22T17:39:55;32.00;54.10
8269;DHT22;4174;48.304;16.364;2022-07-22T17:46:00;32.00;54.20
8269;DHT22;4174;48.304;16.364;2022-07-22T17:52:07;31.80;53.00
8269;DHT22;4174;48.304;16.364;2022-07-22T17:58:13;31.60;56.40
8269;DHT22;4174;48.304;16.364;2022-07-22T18:04:18;31.00;68.70
8269;DHT22;4174;48.304;16.364;2022-07-22T18:10:25;31.00;68.70
8269;DHT22;4174;48.304;16.364;2022-07-22T18:16:29;30.70;71.10
8269;DHT22;4174;48.304;16.364;2022-07-22T18:22:34;30.40;73.10
8269;DHT22;4174;48.304;16.364;2022-07-22T18:28:42;29.80;79.30
8269;DHT22;4174;48.304;16.364;2022-07-22T18:34:46;29.80;79.30
8269;DHT22;4174;48.304;16.364;2022-07-22T18:40:51;29.30;87.10
8269;DHT22;4174;48.304;16.364;2022-07-22T18:47:14;29.20;86.90
